createdAt,value
2023-05-06T00:02:28.007Z,61.15
2023-05-06T00:07:29.827Z,61.34
2023-05-06T00:12:31.557Z,61.05
2023-05-06T00:17:33.170Z,61.17
2023-05-06T00:22:35.122Z,62.10
2023-05-06T00:27:36.862Z,62.04
2023-05-06T00:32:39.060Z,62.33
2023-05-06T00:37:40.859Z,62.87
2023-05-06T00:42:42.987Z,62.97
2023-05-06T00:47:45.030Z,63.39
2023-05-06T00:52:46.892Z,63.49
2023-05-06T00:57:51.921Z,64.09
2023-05-06T01:02:53.816Z,64.17
2023-05-06T01:08:03.142Z,63.80
2023-05-06T01:13:14.063Z,63.78
2023-05-06T01:18:17.592Z,63.91
2023-05-06T01:23:19.453Z,64.36
2023-05-06T01:28:21.202Z,64.98
2023-05-06T01:33:50.864Z,64.85
2023-05-06T01:39:05.007Z,65.57
2023-05-06T01:44:08.287Z,65.14
2023-05-06T01:49:11.643Z,64.90
2023-05-06T01:54:13.527Z,65.87
2023-05-06T01:59:15.254Z,65.82
2023-05-06T02:04:16.961Z,66.24
2023-05-06T02:09:18.801Z,66.21
2023-05-06T02:14:26.692Z,66.08
2023-05-06T02:19:29.357Z,66.58
2023-05-06T02:24:31.127Z,67.20
2023-05-06T02:29:32.774Z,67.40
2023-05-06T02:34:34.553Z,67.78
2023-05-06T02:39:36.258Z,68.30
2023-05-06T02:44:37.889Z,67.71
2023-05-06T02:49:39.621Z,67.91
2023-05-06T02:54:41.354Z,67.92
2023-05-06T02:59:43.003Z,68.20
2023-05-06T03:04:44.654Z,68.01
2023-05-06T03:09:46.358Z,67.81
2023-05-06T03:14:48.287Z,68.06
2023-05-06T03:19:50.633Z,68.01
2023-05-06T03:24:52.675Z,68.64
2023-05-06T03:29:54.926Z,69.71
2023-05-06T03:34:57.968Z,70.00
2023-05-06T03:40:00.779Z,70.57
2023-05-06T03:45:05.135Z,70.64
2023-05-06T03:50:08.006Z,70.71
2023-05-06T03:55:11.522Z,70.30
2023-05-06T04:00:15.023Z,70.74
2023-05-06T04:07:12.562Z,70.21
2023-05-06T04:12:14.451Z,69.85
2023-05-06T04:17:16.425Z,69.06
2023-05-06T04:22:18.774Z,68.85
2023-05-06T04:27:21.193Z,68.40
2023-05-06T04:32:26.489Z,67.58
2023-05-06T04:37:29.137Z,67.03
2023-05-06T04:42:42.170Z,66.91
2023-05-06T04:47:48.752Z,66.53
2023-05-06T04:52:51.979Z,66.03
2023-05-06T04:57:54.158Z,65.59
2023-05-06T05:02:56.130Z,65.23
2023-05-06T05:08:06.568Z,64.64
2023-05-06T05:13:10.166Z,63.98
2023-05-06T05:18:12.777Z,62.50
2023-05-06T05:23:14.800Z,61.61
2023-05-06T05:28:17.938Z,61.23
2023-05-06T05:33:20.266Z,61.23
2023-05-06T05:38:22.231Z,60.88
2023-05-06T05:43:25.986Z,60.80
2023-05-06T05:48:28.532Z,60.24
2023-05-06T05:53:31.411Z,59.53
2023-05-06T05:58:34.279Z,59.20
2023-05-06T06:03:36.372Z,59.17
2023-05-06T06:08:40.831Z,59.26
2023-05-06T06:13:43.062Z,59.82
2023-05-06T06:18:45.080Z,60.35
2023-05-06T06:23:47.147Z,60.52
2023-05-06T06:28:49.215Z,60.55
2023-05-06T06:33:51.036Z,60.44
2023-05-06T06:38:53.868Z,59.75
2023-05-06T06:43:55.848Z,59.17
2023-05-06T06:49:03.741Z,58.71
2023-05-06T06:54:05.574Z,58.44
2023-05-06T06:59:07.967Z,58.27
2023-05-06T07:04:09.729Z,58.26
2023-05-06T07:09:12.072Z,57.78
2023-05-06T07:14:13.911Z,57.32
2023-05-06T07:19:15.684Z,57.14
2023-05-06T07:24:17.307Z,57.19
2023-05-06T07:29:19.044Z,57.30
2023-05-06T07:34:20.762Z,57.76
2023-05-06T07:39:22.430Z,57.99
2023-05-06T07:44:24.132Z,58.16
2023-05-06T07:49:28.665Z,58.38
2023-05-06T07:54:31.789Z,58.82
2023-05-06T07:59:33.643Z,58.93
2023-05-06T08:04:35.904Z,59.35
2023-05-06T08:09:38.117Z,59.59
2023-05-06T08:14:39.779Z,59.66
2023-05-06T08:19:41.477Z,59.62
2023-05-06T08:24:43.497Z,59.77
2023-05-06T08:29:45.207Z,59.93
2023-05-06T08:34:46.893Z,59.94
2023-05-06T08:39:48.595Z,60.25
2023-05-06T08:44:52.239Z,60.27
2023-05-06T08:49:53.982Z,60.55
2023-05-06T08:55:01.342Z,61.13
2023-05-06T09:00:05.046Z,62.42
2023-05-06T09:05:10.096Z,63.20
2023-05-06T09:10:13.633Z,64.38
2023-05-06T09:15:15.357Z,63.45
2023-05-06T09:20:17.472Z,66.94
2023-05-06T09:25:19.236Z,68.10
2023-05-06T09:30:20.979Z,68.65
2023-05-06T09:35:28.108Z,68.35
2023-05-06T09:40:30.820Z,66.57
2023-05-06T09:45:33.199Z,67.66
2023-05-06T09:50:35.845Z,70.49
2023-05-06T09:55:38.468Z,71.62
2023-05-06T10:00:41.236Z,71.66
2023-05-06T10:05:43.127Z,72.26
2023-05-06T10:10:48.776Z,71.76
2023-05-06T10:15:51.250Z,70.48
2023-05-06T10:20:55.367Z,70.65
2023-05-06T10:26:01.168Z,70.46
2023-05-06T10:31:04.972Z,71.36
2023-05-06T10:36:27.902Z,71.40
2023-05-06T10:41:30.894Z,71.56
2023-05-06T10:46:33.020Z,73.15
2023-05-06T10:51:38.778Z,73.38
2023-05-06T10:57:10.992Z,74.04
2023-05-06T11:02:13.744Z,74.66
2023-05-06T11:07:21.753Z,74.91
2023-05-06T11:12:52.812Z,74.88
2023-05-06T11:17:57.129Z,74.22
2023-05-06T11:22:59.057Z,74.35
2023-05-06T11:28:01.578Z,74.84
2023-05-06T11:33:05.698Z,75.34
2023-05-06T11:38:07.755Z,76.15
2023-05-06T11:43:14.245Z,76.51
2023-05-06T11:48:17.504Z,76.95
2023-05-06T11:53:21.949Z,76.47
2023-05-06T11:58:26.497Z,76.45
2023-05-06T12:03:31.492Z,76.44
2023-05-06T12:08:35.962Z,76.46
2023-05-06T12:13:44.257Z,76.47
2023-05-06T12:18:46.061Z,77.68
2023-05-06T12:23:56.327Z,76.70
2023-05-06T12:29:06.925Z,76.30
2023-05-06T12:34:08.787Z,76.49
2023-05-06T12:39:11.770Z,76.05
2023-05-06T12:44:32.652Z,76.26
2023-05-06T12:50:00.657Z,76.30
2023-05-06T12:55:02.795Z,76.97
2023-05-06T13:00:07.428Z,77.46
2023-05-06T13:05:10.876Z,78.02
2023-05-06T13:10:12.804Z,78.35
2023-05-06T13:15:14.939Z,78.44
2023-05-06T13:20:18.446Z,76.68
2023-05-06T13:25:20.085Z,76.86
2023-05-06T13:30:21.777Z,77.04
2023-05-06T13:35:23.503Z,76.47
2023-05-06T13:40:25.210Z,77.02
2023-05-06T13:45:26.883Z,76.30
2023-05-06T13:50:28.612Z,75.37
2023-05-06T13:55:30.425Z,74.92
2023-05-06T14:00:32.939Z,74.46
2023-05-06T14:05:34.875Z,74.04
2023-05-06T14:10:36.544Z,73.33
2023-05-06T14:15:38.242Z,72.57
2023-05-06T14:20:40.146Z,72.51
2023-05-06T14:25:41.788Z,69.72
2023-05-06T14:30:44.273Z,68.86
2023-05-06T14:35:49.769Z,69.13
2023-05-06T14:40:53.016Z,69.07
2023-05-06T14:45:54.777Z,67.25
2023-05-06T14:50:56.563Z,65.50
2023-05-06T14:55:58.221Z,64.45
2023-05-06T15:00:59.997Z,63.94
2023-05-06T15:06:01.801Z,62.87
2023-05-06T15:11:04.259Z,62.95
2023-05-06T15:16:15.971Z,63.71
2023-05-06T15:21:17.686Z,64.46
2023-05-06T15:26:19.846Z,65.29
2023-05-06T15:31:21.566Z,65.22
2023-05-06T15:36:23.244Z,65.25
2023-05-06T15:41:31.441Z,66.17
2023-05-06T15:46:33.648Z,64.12
2023-05-06T15:51:35.426Z,63.86
2023-05-06T15:56:41.040Z,63.70
2023-05-06T16:02:24.892Z,64.91
2023-05-06T16:07:05.612Z,65.02
2023-05-06T16:12:07.414Z,65.86
2023-05-06T16:17:09.134Z,65.66
2023-05-06T16:22:10.961Z,65.99
2023-05-06T16:27:13.979Z,65.94
2023-05-06T16:32:15.733Z,66.89
2023-05-06T16:37:17.496Z,68.39
2023-05-06T16:42:19.163Z,69.78
2023-05-06T16:47:23.756Z,70.59
2023-05-06T16:52:25.593Z,71.71
2023-05-06T16:57:27.237Z,72.62
2023-05-06T17:02:29.047Z,73.17
2023-05-06T17:07:30.775Z,72.88
2023-05-06T17:12:32.904Z,70.95
2023-05-06T17:17:34.867Z,70.50
2023-05-06T17:27:38.894Z,69.34
2023-05-06T17:32:41.733Z,69.34
2023-05-06T17:37:43.402Z,68.82
2023-05-06T17:42:45.462Z,68.81
2023-05-06T17:47:47.195Z,70.00
2023-05-06T17:52:52.902Z,72.00
2023-05-06T17:57:54.672Z,73.47
2023-05-06T18:02:56.362Z,74.97
2023-05-06T18:07:58.491Z,76.40
2023-05-06T18:13:00.348Z,78.16
2023-05-06T18:18:02.286Z,79.50
2023-05-06T18:23:04.135Z,80.09
2023-05-06T18:28:06.078Z,80.48
2023-05-06T18:33:07.827Z,80.74
2023-05-06T18:38:11.032Z,81.22
2023-05-06T18:43:13.560Z,81.34
2023-05-06T18:48:16.141Z,81.66
2023-05-06T18:53:17.891Z,81.50
2023-05-06T18:58:19.701Z,81.57
2023-05-06T19:03:22.386Z,80.97
2023-05-06T19:08:24.077Z,81.40
2023-05-06T19:13:26.381Z,81.93
2023-05-06T19:18:28.119Z,82.53
2023-05-06T19:23:30.011Z,82.66
2023-05-06T19:28:31.844Z,82.24
2023-05-06T19:33:33.603Z,82.31
2023-05-06T19:38:35.434Z,82.27
2023-05-06T19:43:42.484Z,82.45
2023-05-06T19:48:45.594Z,82.54
2023-05-06T19:53:59.033Z,82.54
2023-05-06T19:59:00.754Z,82.34
2023-05-06T20:04:03.281Z,82.13
2023-05-06T20:09:05.039Z,82.41
2023-05-06T20:14:08.088Z,82.47
2023-05-06T20:19:09.759Z,82.39
2023-05-06T20:24:11.612Z,82.21
2023-05-06T20:29:13.333Z,81.61
2023-05-06T20:34:15.173Z,81.37
2023-05-06T20:39:16.912Z,81.64
2023-05-06T20:44:21.331Z,82.18
2023-05-06T20:49:23.333Z,82.60
2023-05-06T20:54:25.064Z,83.12
2023-05-06T20:59:29.516Z,83.48
2023-05-06T21:04:31.611Z,83.70
2023-05-06T21:09:34.922Z,83.86
2023-05-06T21:15:00.697Z,83.44
2023-05-06T21:20:04.069Z,82.89
2023-05-06T21:25:07.608Z,82.51
2023-05-06T21:30:10.438Z,81.88
2023-05-06T21:35:18.587Z,81.49
2023-05-06T21:40:21.193Z,81.28
2023-05-06T21:45:24.041Z,81.28
2023-05-06T21:50:27.270Z,81.23
2023-05-06T21:55:29.231Z,80.99
2023-05-06T22:00:30.918Z,81.01
2023-05-06T22:05:32.569Z,81.76
2023-05-06T22:10:34.386Z,82.12
2023-05-06T22:15:36.148Z,82.13
2023-05-06T22:20:37.842Z,82.11
2023-05-06T22:25:39.502Z,82.30
2023-05-06T22:30:41.325Z,82.61
2023-05-06T22:35:43.025Z,82.02
2023-05-06T22:40:44.703Z,81.95
2023-05-06T22:45:46.662Z,82.41
2023-05-06T22:50:48.341Z,82.49
2023-05-06T22:55:50.224Z,82.95
2023-05-06T23:00:52.183Z,83.93
2023-05-06T23:05:54.303Z,84.05
2023-05-06T23:10:58.921Z,83.88
2023-05-06T23:16:02.644Z,84.04
2023-05-06T23:21:04.578Z,84.24
2023-05-06T23:26:06.780Z,84.66
2023-05-06T23:31:08.462Z,84.80
2023-05-06T23:36:10.432Z,85.08
2023-05-06T23:41:13.527Z,85.07
2023-05-06T23:46:17.784Z,84.72
2023-05-06T23:51:20.844Z,84.35
2023-05-06T23:56:22.933Z,84.12
